sensor_id;sensor_type;location;lat;lon;timestamp;P1;durP1;ratioP1;P2;durP2;ratioP2
65182;SDS011;51771;51.068;-1.780;2022-11-04T08:32:47;30.20;;;12.75;;
65182;SDS011;51771;51.068;-1.780;2022-11-04T08:35:13;29.65;;;11.10;;
65182;SDS011;51771;51.068;-1.780;2022-11-04T08:37:38;44.05;;;12.27;;
65182;SDS011;51771;51.068;-1.780;2022-11-04T08:40:03;26.40;;;10.87;;
65182;SDS011;51771;51.068;-1.780;2022-11-04T08:42:29;26.63;;;10.80;;
65182;SDS011;51771;51.068;-1.780;2022-11-04T08:44:54;34.00;;;11.43;;
65182;SDS011;51771;51.068;-1.780;2022-11-04T08:47:19;27.27;;;10.73;;
65182;SDS011;51771;51.068;-1.780;2022-11-04T08:49:44;33.28;;;11.65;;
65182;SDS011;51771;51.068;-1.780;2022-11-04T08:52:09;51.73;;;10.87;;
65182;SDS011;51771;51.068;-1.780;2022-11-04T08:54:35;29.45;;;9.07;;
65182;SDS011;51771;51.068;-1.780;2022-11-04T08:57:00;36.10;;;11.23;;
65182;SDS011;51771;51.068;-1.780;2022-11-04T08:59:25;30.50;;;8.80;;
65182;SDS011;51771;51.068;-1.780;2022-11-04T09:01:50;31.13;;;10.13;;
65182;SDS011;51771;51.068;-1.780;2022-11-04T09:04:16;33.45;;;9.05;;
65182;SDS011;51771;51.068;-1.780;2022-11-04T09:06:42;28.33;;;8.13;;
65182;SDS011;51771;51.068;-1.780;2022-11-04T09:09:09;22.98;;;8.45;;
65182;SDS011;51771;51.068;-1.780;2022-11-04T09:11:37;27.60;;;9.55;;
65182;SDS011;51771;51.068;-1.780;2022-11-04T09:14:03;23.08;;;8.77;;
65182;SDS011;51771;51.068;-1.780;2022-11-04T09:16:29;42.63;;;10.23;;
65182;SDS011;51771;51.068;-1.780;2022-11-04T09:18:55;25.52;;;9.40;;
65182;SDS011;51771;51.068;-1.780;2022-11-04T09:21:21;20.02;;;7.00;;
65182;SDS011;51771;51.068;-1.780;2022-11-04T09:23:46;19.27;;;6.47;;
65182;SDS011;51771;51.068;-1.780;2022-11-04T09:26:13;25.42;;;8.27;;
65182;SDS011;51771;51.068;-1.780;2022-11-04T09:28:38;20.08;;;6.15;;
65182;SDS011;51771;51.068;-1.780;2022-11-04T09:31:15;17.63;;;6.85;;
65182;SDS011;51771;51.068;-1.780;2022-11-04T09:33:40;20.20;;;7.05;;
65182;SDS011;51771;51.068;-1.780;2022-11-04T09:36:06;23.45;;;6.53;;
65182;SDS011;51771;51.068;-1.780;2022-11-04T09:38:33;20.02;;;5.18;;
65182;SDS011;51771;51.068;-1.780;2022-11-04T09:40:59;23.25;;;6.40;;
65182;SDS011;51771;51.068;-1.780;2022-11-04T09:45:56;17.30;;;5.32;;
65182;SDS011;51771;51.068;-1.780;2022-11-04T09:48:32;24.48;;;5.93;;
65182;SDS011;51771;51.068;-1.780;2022-11-04T09:51:00;19.17;;;5.40;;
65182;SDS011;51771;51.068;-1.780;2022-11-04T09:53:27;28.60;;;6.20;;
65182;SDS011;51771;51.068;-1.780;2022-11-04T09:56:02;16.42;;;3.20;;
65182;SDS011;51771;51.068;-1.780;2022-11-04T09:58:32;12.57;;;4.45;;
65182;SDS011;51771;51.068;-1.780;2022-11-04T10:01:02;12.63;;;4.00;;
65182;SDS011;51771;51.068;-1.780;2022-11-04T10:03:39;8.10;;;3.42;;
65182;SDS011;51771;51.068;-1.780;2022-11-04T10:11:39;22.13;;;4.05;;
65182;SDS011;51771;51.068;-1.780;2022-11-04T10:21:57;17.45;;;3.42;;
65182;SDS011;51771;51.068;-1.780;2022-11-04T10:24:40;11.23;;;2.78;;
65182;SDS011;51771;51.068;-1.780;2022-11-04T10:27:11;19.02;;;3.00;;
65182;SDS011;51771;51.068;-1.780;2022-11-04T10:29:40;6.47;;;2.05;;
65182;SDS011;51771;51.068;-1.780;2022-11-04T10:32:14;6.32;;;2.00;;
65182;SDS011;51771;51.068;-1.780;2022-11-04T10:34:49;8.95;;;1.48;;
65182;SDS011;51771;51.068;-1.780;2022-11-04T10:37:19;6.55;;;1.85;;
65182;SDS011;51771;51.068;-1.780;2022-11-04T10:39:45;9.10;;;2.42;;
65182;SDS011;51771;51.068;-1.780;2022-11-04T10:42:11;7.93;;;2.50;;
65182;SDS011;51771;51.068;-1.780;2022-11-04T10:44:37;6.15;;;1.90;;
65182;SDS011;51771;51.068;-1.780;2022-11-04T10:47:06;5.10;;;1.77;;
65182;SDS011;51771;51.068;-1.780;2022-11-04T10:52:00;16.13;;;2.53;;
65182;SDS011;51771;51.068;-1.780;2022-11-04T10:54:26;14.70;;;2.78;;
65182;SDS011;51771;51.068;-1.780;2022-11-04T10:56:54;6.15;;;2.35;;
65182;SDS011;51771;51.068;-1.780;2022-11-04T11:01:52;7.57;;;2.25;;
65182;SDS011;51771;51.068;-1.780;2022-11-04T11:04:28;8.00;;;2.20;;
65182;SDS011;51771;51.068;-1.780;2022-11-04T11:06:54;6.93;;;1.83;;
65182;SDS011;51771;51.068;-1.780;2022-11-04T11:09:23;6.93;;;1.85;;
65182;SDS011;51771;51.068;-1.780;2022-11-04T11:11:53;13.27;;;2.60;;
65182;SDS011;51771;51.068;-1.780;2022-11-04T11:14:40;5.43;;;1.80;;
65182;SDS011;51771;51.068;-1.780;2022-11-04T11:19:55;8.10;;;1.83;;
65182;SDS011;51771;51.068;-1.780;2022-11-04T11:22:41;5.22;;;1.92;;
65182;SDS011;51771;51.068;-1.780;2022-11-04T11:27:37;8.45;;;1.75;;
65182;SDS011;51771;51.068;-1.780;2022-11-04T11:30:03;14.25;;;3.10;;
65182;SDS011;51771;51.068;-1.780;2022-11-04T11:32:32;15.48;;;2.75;;
65182;SDS011;51771;51.068;-1.780;2022-11-04T11:34:59;17.40;;;2.75;;
65182;SDS011;51771;51.068;-1.780;2022-11-04T11:37:26;8.77;;;1.80;;
65182;SDS011;51771;51.068;-1.780;2022-11-04T11:39:54;8.25;;;2.08;;
65182;SDS011;51771;51.068;-1.780;2022-11-04T11:42:20;5.93;;;1.70;;
65182;SDS011;51771;51.068;-1.780;2022-11-04T11:44:55;6.03;;;1.67;;
65182;SDS011;51771;51.068;-1.780;2022-11-04T11:52:34;6.03;;;1.55;;
65182;SDS011;51771;51.068;-1.780;2022-11-04T12:00:11;4.40;;;1.00;;
65182;SDS011;51771;51.068;-1.780;2022-11-04T12:02:48;17.10;;;1.83;;
65182;SDS011;51771;51.068;-1.780;2022-11-04T12:05:15;4.57;;;2.10;;
65182;SDS011;51771;51.068;-1.780;2022-11-04T12:22:57;10.90;;;3.90;;
65182;SDS011;51771;51.068;-1.780;2022-11-04T12:25:35;9.10;;;2.58;;
65182;SDS011;51771;51.068;-1.780;2022-11-04T12:28:10;7.13;;;1.70;;
65182;SDS011;51771;51.068;-1.780;2022-11-04T12:30:48;12.25;;;3.03;;
65182;SDS011;51771;51.068;-1.780;2022-11-04T12:33:29;14.35;;;2.35;;
65182;SDS011;51771;51.068;-1.780;2022-11-04T12:41:20;7.53;;;2.88;;
65182;SDS011;51771;51.068;-1.780;2022-11-04T12:54:07;10.27;;;1.33;;
65182;SDS011;51771;51.068;-1.780;2022-11-04T12:56:38;12.20;;;1.77;;
65182;SDS011;51771;51.068;-1.780;2022-11-04T13:04:21;7.57;;;1.88;;
65182;SDS011;51771;51.068;-1.780;2022-11-04T13:06:52;9.38;;;1.60;;
65182;SDS011;51771;51.068;-1.780;2022-11-04T13:12:10;16.98;;;2.05;;
65182;SDS011;51771;51.068;-1.780;2022-11-04T13:17:11;5.18;;;1.40;;
65182;SDS011;51771;51.068;-1.780;2022-11-04T13:19:50;4.40;;;1.85;;
65182;SDS011;51771;51.068;-1.780;2022-11-04T13:22:17;5.93;;;1.73;;
65182;SDS011;51771;51.068;-1.780;2022-11-04T13:24:46;4.20;;;1.48;;
65182;SDS011;51771;51.068;-1.780;2022-11-04T13:27:17;8.70;;;1.92;;
65182;SDS011;51771;51.068;-1.780;2022-11-04T13:29:43;10.30;;;1.88;;
65182;SDS011;51771;51.068;-1.780;2022-11-04T13:35:09;2.10;;;1.05;;
65182;SDS011;51771;51.068;-1.780;2022-11-04T13:40:05;1.85;;;1.08;;
65182;SDS011;51771;51.068;-1.780;2022-11-04T13:45:44;4.70;;;1.60;;
65182;SDS011;51771;51.068;-1.780;2022-11-04T13:48:09;3.45;;;1.40;;
65182;SDS011;51771;51.068;-1.780;2022-11-04T13:50:36;5.60;;;1.40;;
65182;SDS011;51771;51.068;-1.780;2022-11-04T13:53:03;4.95;;;1.75;;
65182;SDS011;51771;51.068;-1.780;2022-11-04T13:55:29;6.90;;;1.50;;
65182;SDS011;51771;51.068;-1.780;2022-11-04T13:57:58;8.65;;;1.63;;
65182;SDS011;51771;51.068;-1.780;2022-11-04T14:00:25;5.40;;;1.40;;
65182;SDS011;51771;51.068;-1.780;2022-11-04T14:18:49;7.35;;;1.60;;
65182;SDS011;51771;51.068;-1.780;2022-11-04T14:23:52;13.93;;;2.63;;
65182;SDS011;51771;51.068;-1.780;2022-11-04T14:26:20;2.47;;;1.48;;
65182;SDS011;51771;51.068;-1.780;2022-11-04T14:28:58;11.82;;;1.92;;
65182;SDS011;51771;51.068;-1.780;2022-11-04T14:31:34;13.43;;;3.42;;
65182;SDS011;51771;51.068;-1.780;2022-11-04T14:34:00;7.05;;;2.20;;
65182;SDS011;51771;51.068;-1.780;2022-11-04T14:36:29;10.02;;;2.72;;
65182;SDS011;51771;51.068;-1.780;2022-11-04T14:44:08;9.70;;;2.28;;
65182;SDS011;51771;51.068;-1.780;2022-11-04T14:46:40;4.93;;;1.70;;
65182;SDS011;51771;51.068;-1.780;2022-11-04T14:49:06;6.63;;;2.88;;
65182;SDS011;51771;51.068;-1.780;2022-11-04T14:51:32;9.77;;;2.80;;
65182;SDS011;51771;51.068;-1.780;2022-11-04T14:56:29;7.88;;;2.25;;
65182;SDS011;51771;51.068;-1.780;2022-11-04T14:58:55;10.55;;;1.63;;
65182;SDS011;51771;51.068;-1.780;2022-11-04T15:01:21;8.77;;;1.58;;
65182;SDS011;51771;51.068;-1.780;2022-11-04T15:03:47;13.77;;;2.08;;
65182;SDS011;51771;51.068;-1.780;2022-11-04T15:06:12;7.05;;;2.40;;
65182;SDS011;51771;51.068;-1.780;2022-11-04T15:08:46;16.00;;;2.33;;
65182;SDS011;51771;51.068;-1.780;2022-11-04T15:13:47;2.05;;;1.63;;
65182;SDS011;51771;51.068;-1.780;2022-11-04T15:16:13;3.22;;;2.45;;
65182;SDS011;51771;51.068;-1.780;2022-11-04T15:18:39;12.07;;;1.67;;
65182;SDS011;51771;51.068;-1.780;2022-11-04T15:21:05;8.30;;;1.67;;
65182;SDS011;51771;51.068;-1.780;2022-11-04T15:23:41;7.72;;;2.22;;
65182;SDS011;51771;51.068;-1.780;2022-11-04T15:26:24;7.78;;;2.13;;
65182;SDS011;51771;51.068;-1.780;2022-11-04T15:28:50;7.22;;;2.10;;
65182;SDS011;51771;51.068;-1.780;2022-11-04T15:31:17;13.50;;;1.83;;
65182;SDS011;51771;51.068;-1.780;2022-11-04T15:33:45;3.10;;;2.35;;
65182;SDS011;51771;51.068;-1.780;2022-11-04T15:36:16;10.00;;;2.58;;
65182;SDS011;51771;51.068;-1.780;2022-11-04T15:38:48;7.57;;;2.17;;
65182;SDS011;51771;51.068;-1.780;2022-11-04T15:41:13;11.18;;;2.75;;
65182;SDS011;51771;51.068;-1.780;2022-11-04T15:46:23;15.15;;;2.10;;
65182;SDS011;51771;51.068;-1.780;2022-11-04T15:49:03;5.47;;;2.50;;
65182;SDS011;51771;51.068;-1.780;2022-11-04T15:51:30;32.35;;;3.92;;
65182;SDS011;51771;51.068;-1.780;2022-11-04T15:53:59;6.13;;;2.17;;
65182;SDS011;51771;51.068;-1.780;2022-11-04T15:56:26;16.77;;;2.70;;
65182;SDS011;51771;51.068;-1.780;2022-11-04T15:58:52;6.78;;;1.50;;
65182;SDS011;51771;51.068;-1.780;2022-11-04T16:01:18;9.35;;;2.08;;
65182;SDS011;51771;51.068;-1.780;2022-11-04T16:03:54;8.32;;;3.28;;
65182;SDS011;51771;51.068;-1.780;2022-11-04T16:06:41;14.57;;;3.20;;
65182;SDS011;51771;51.068;-1.780;2022-11-04T16:09:27;11.15;;;1.75;;
65182;SDS011;51771;51.068;-1.780;2022-11-04T16:12:10;5.40;;;2.53;;
65182;SDS011;51771;51.068;-1.780;2022-11-04T16:14:36;2.15;;;1.77;;
65182;SDS011;51771;51.068;-1.780;2022-11-04T16:17:02;4.35;;;2.20;;
65182;SDS011;51771;51.068;-1.780;2022-11-04T16:19:28;5.75;;;2.38;;
65182;SDS011;51771;51.068;-1.780;2022-11-04T16:21:58;11.23;;;2.47;;
65182;SDS011;51771;51.068;-1.780;2022-11-04T16:24:24;14.20;;;1.98;;
65182;SDS011;51771;51.068;-1.780;2022-11-04T16:26:53;8.57;;;2.03;;
65182;SDS011;51771;51.068;-1.780;2022-11-04T16:31:44;8.30;;;2.90;;
65182;SDS011;51771;51.068;-1.780;2022-11-04T16:34:12;26.13;;;3.83;;
65182;SDS011;51771;51.068;-1.780;2022-11-04T16:36:38;6.47;;;2.40;;
65182;SDS011;51771;51.068;-1.780;2022-11-04T16:39:03;10.88;;;3.15;;
65182;SDS011;51771;51.068;-1.780;2022-11-04T16:41:33;4.03;;;2.35;;
65182;SDS011;51771;51.068;-1.780;2022-11-04T16:43:59;5.85;;;2.33;;
65182;SDS011;51771;51.068;-1.780;2022-11-04T16:46:24;3.83;;;2.07;;
65182;SDS011;51771;51.068;-1.780;2022-11-04T16:48:49;9.35;;;2.22;;
65182;SDS011;51771;51.068;-1.780;2022-11-04T16:51:16;9.98;;;2.58;;
65182;SDS011;51771;51.068;-1.780;2022-11-04T16:53:42;3.58;;;2.63;;
65182;SDS011;51771;51.068;-1.780;2022-11-04T16:56:07;14.60;;;2.70;;
65182;SDS011;51771;51.068;-1.780;2022-11-04T16:58:32;9.48;;;2.10;;
65182;SDS011;51771;51.068;-1.780;2022-11-04T17:00:58;10.80;;;2.45;;
65182;SDS011;51771;51.068;-1.780;2022-11-04T17:03:23;11.40;;;4.07;;
65182;SDS011;51771;51.068;-1.780;2022-11-04T17:05:49;11.05;;;3.33;;
65182;SDS011;51771;51.068;-1.780;2022-11-04T17:08:15;3.67;;;2.55;;
65182;SDS011;51771;51.068;-1.780;2022-11-04T17:10:40;13.40;;;2.70;;
65182;SDS011;51771;51.068;-1.780;2022-11-04T17:13:06;14.77;;;2.90;;
65182;SDS011;51771;51.068;-1.780;2022-11-04T17:15:31;11.57;;;2.80;;
65182;SDS011;51771;51.068;-1.780;2022-11-04T17:17:57;11.07;;;3.38;;
65182;SDS011;51771;51.068;-1.780;2022-11-04T17:20:22;9.03;;;3.50;;
65182;SDS011;51771;51.068;-1.780;2022-11-04T17:22:48;4.93;;;3.15;;
65182;SDS011;51771;51.068;-1.780;2022-11-04T17:25:14;13.75;;;2.97;;
65182;SDS011;51771;51.068;-1.780;2022-11-04T17:27:40;12.32;;;3.55;;
65182;SDS011;51771;51.068;-1.780;2022-11-04T17:30:06;9.98;;;4.50;;
65182;SDS011;51771;51.068;-1.780;2022-11-04T17:32:31;16.42;;;4.13;;
65182;SDS011;51771;51.068;-1.780;2022-11-04T17:34:56;12.77;;;4.63;;
65182;SDS011;51771;51.068;-1.780;2022-11-04T17:37:22;9.83;;;4.57;;
65182;SDS011;51771;51.068;-1.780;2022-11-04T17:39:47;10.73;;;3.20;;
65182;SDS011;51771;51.068;-1.780;2022-11-04T17:42:12;4.47;;;2.70;;
65182;SDS011;51771;51.068;-1.780;2022-11-04T17:44:56;13.10;;;4.13;;
65182;SDS011;51771;51.068;-1.780;2022-11-04T17:47:21;10.17;;;3.10;;
65182;SDS011;51771;51.068;-1.780;2022-11-04T17:49:46;30.90;;;4.43;;
65182;SDS011;51771;51.068;-1.780;2022-11-04T17:52:11;7.50;;;4.13;;
65182;SDS011;51771;51.068;-1.780;2022-11-04T17:54:37;30.60;;;4.70;;
65182;SDS011;51771;51.068;-1.780;2022-11-04T17:57:02;16.93;;;4.87;;
65182;SDS011;51771;51.068;-1.780;2022-11-04T17:59:27;8.77;;;3.25;;
65182;SDS011;51771;51.068;-1.780;2022-11-04T18:01:53;10.67;;;4.03;;
65182;SDS011;51771;51.068;-1.780;2022-11-04T18:04:19;8.15;;;3.30;;
65182;SDS011;51771;51.068;-1.780;2022-11-04T18:06:44;23.48;;;4.63;;
65182;SDS011;51771;51.068;-1.780;2022-11-04T18:09:10;11.40;;;3.90;;
65182;SDS011;51771;51.068;-1.780;2022-11-04T18:11:35;33.10;;;4.22;;
65182;SDS011;51771;51.068;-1.780;2022-11-04T18:14:20;21.73;;;7.35;;
65182;SDS011;51771;51.068;-1.780;2022-11-04T18:16:46;16.85;;;7.22;;
65182;SDS011;51771;51.068;-1.780;2022-11-04T18:19:12;26.88;;;7.97;;
65182;SDS011;51771;51.068;-1.780;2022-11-04T18:21:37;14.45;;;5.35;;
65182;SDS011;51771;51.068;-1.780;2022-11-04T18:24:03;12.77;;;5.55;;
65182;SDS011;51771;51.068;-1.780;2022-11-04T18:26:28;19.13;;;6.05;;
65182;SDS011;51771;51.068;-1.780;2022-11-04T18:28:54;12.43;;;4.97;;
65182;SDS011;51771;51.068;-1.780;2022-11-04T18:31:23;11.73;;;4.80;;
65182;SDS011;51771;51.068;-1.780;2022-11-04T18:33:49;22.88;;;5.95;;
65182;SDS011;51771;51.068;-1.780;2022-11-04T18:36:14;15.23;;;5.65;;
65182;SDS011;51771;51.068;-1.780;2022-11-04T18:38:39;13.32;;;6.43;;
65182;SDS011;51771;51.068;-1.780;2022-11-04T18:41:05;8.53;;;5.20;;
65182;SDS011;51771;51.068;-1.780;2022-11-04T18:43:30;18.13;;;5.30;;
65182;SDS011;51771;51.068;-1.780;2022-11-04T18:45:55;15.57;;;6.63;;
65182;SDS011;51771;51.068;-1.780;2022-11-04T18:48:21;10.77;;;4.70;;
65182;SDS011;51771;51.068;-1.780;2022-11-04T18:50:46;19.40;;;5.23;;
65182;SDS011;51771;51.068;-1.780;2022-11-04T18:53:12;18.48;;;6.32;;
65182;SDS011;51771;51.068;-1.780;2022-11-04T18:55:37;10.50;;;4.57;;
65182;SDS011;51771;51.068;-1.780;2022-11-04T18:58:02;17.00;;;4.80;;
65182;SDS011;51771;51.068;-1.780;2022-11-04T19:00:28;11.75;;;5.18;;
65182;SDS011;51771;51.068;-1.780;2022-11-04T19:02:54;19.30;;;5.03;;
65182;SDS011;51771;51.068;-1.780;2022-11-04T19:05:19;10.00;;;5.03;;
65182;SDS011;51771;51.068;-1.780;2022-11-04T19:07:45;24.48;;;5.32;;
65182;SDS011;51771;51.068;-1.780;2022-11-04T19:10:10;11.80;;;4.53;;
65182;SDS011;51771;51.068;-1.780;2022-11-04T19:12:35;16.83;;;4.00;;
65182;SDS011;51771;51.068;-1.780;2022-11-04T19:15:19;10.25;;;3.70;;
65182;SDS011;51771;51.068;-1.780;2022-11-04T19:17:45;14.13;;;4.30;;
65182;SDS011;51771;51.068;-1.780;2022-11-04T19:20:10;7.70;;;4.77;;
65182;SDS011;51771;51.068;-1.780;2022-11-04T19:22:36;7.10;;;4.90;;
65182;SDS011;51771;51.068;-1.780;2022-11-04T19:25:01;10.35;;;5.32;;
65182;SDS011;51771;51.068;-1.780;2022-11-04T19:27:26;21.33;;;7.03;;
65182;SDS011;51771;51.068;-1.780;2022-11-04T19:29:51;7.63;;;5.37;;
65182;SDS011;51771;51.068;-1.780;2022-11-04T19:32:17;22.88;;;6.82;;
65182;SDS011;51771;51.068;-1.780;2022-11-04T19:34:42;23.10;;;9.45;;
65182;SDS011;51771;51.068;-1.780;2022-11-04T19:37:08;31.58;;;12.25;;
65182;SDS011;51771;51.068;-1.780;2022-11-04T19:39:34;16.85;;;8.63;;
65182;SDS011;51771;51.068;-1.780;2022-11-04T19:41:59;21.42;;;10.93;;
65182;SDS011;51771;51.068;-1.780;2022-11-04T19:44:43;30.23;;;11.82;;
65182;SDS011;51771;51.068;-1.780;2022-11-04T19:47:09;23.45;;;12.50;;
65182;SDS011;51771;51.068;-1.780;2022-11-04T19:49:34;22.58;;;11.20;;
65182;SDS011;51771;51.068;-1.780;2022-11-04T19:51:59;19.67;;;10.00;;
65182;SDS011;51771;51.068;-1.780;2022-11-04T19:54:25;34.42;;;10.27;;
65182;SDS011;51771;51.068;-1.780;2022-11-04T19:56:50;15.02;;;7.35;;
65182;SDS011;51771;51.068;-1.780;2022-11-04T19:59:16;23.30;;;9.60;;
65182;SDS011;51771;51.068;-1.780;2022-11-04T20:01:42;14.52;;;6.18;;
65182;SDS011;51771;51.068;-1.780;2022-11-04T20:04:08;14.07;;;7.35;;
65182;SDS011;51771;51.068;-1.780;2022-11-04T20:06:33;14.32;;;7.22;;
65182;SDS011;51771;51.068;-1.780;2022-11-04T20:09:03;14.63;;;7.43;;
65182;SDS011;51771;51.068;-1.780;2022-11-04T20:11:32;24.02;;;9.30;;
65182;SDS011;51771;51.068;-1.780;2022-11-04T20:13:58;27.42;;;11.63;;
65182;SDS011;51771;51.068;-1.780;2022-11-04T20:16:24;39.15;;;16.42;;
65182;SDS011;51771;51.068;-1.780;2022-11-04T20:18:51;37.90;;;15.77;;
65182;SDS011;51771;51.068;-1.780;2022-11-04T20:21:18;40.90;;;19.95;;
65182;SDS011;51771;51.068;-1.780;2022-11-04T20:23:44;31.83;;;17.83;;
65182;SDS011;51771;51.068;-1.780;2022-11-04T20:26:12;40.40;;;16.48;;
65182;SDS011;51771;51.068;-1.780;2022-11-04T20:28:39;31.65;;;13.15;;
65182;SDS011;51771;51.068;-1.780;2022-11-04T20:31:14;25.58;;;13.60;;
65182;SDS011;51771;51.068;-1.780;2022-11-04T20:33:42;30.90;;;14.20;;
65182;SDS011;51771;51.068;-1.780;2022-11-04T20:36:07;31.90;;;13.80;;
65182;SDS011;51771;51.068;-1.780;2022-11-04T20:38:33;37.20;;;14.75;;
65182;SDS011;51771;51.068;-1.780;2022-11-04T20:41:05;25.70;;;13.63;;
65182;SDS011;51771;51.068;-1.780;2022-11-04T20:43:31;28.45;;;11.98;;
65182;SDS011;51771;51.068;-1.780;2022-11-04T20:46:00;29.20;;;13.63;;
65182;SDS011;51771;51.068;-1.780;2022-11-04T20:48:25;37.90;;;13.85;;
65182;SDS011;51771;51.068;-1.780;2022-11-04T20:50:50;31.27;;;12.10;;
65182;SDS011;51771;51.068;-1.780;2022-11-04T20:53:16;33.97;;;14.95;;
65182;SDS011;51771;51.068;-1.780;2022-11-04T20:55:41;24.23;;;12.40;;
65182;SDS011;51771;51.068;-1.780;2022-11-04T20:58:07;26.35;;;13.77;;
65182;SDS011;51771;51.068;-1.780;2022-11-04T21:00:32;18.23;;;8.77;;
65182;SDS011;51771;51.068;-1.780;2022-11-04T21:02:57;28.20;;;13.37;;
65182;SDS011;51771;51.068;-1.780;2022-11-04T21:05:22;24.20;;;11.17;;
65182;SDS011;51771;51.068;-1.780;2022-11-04T21:07:47;13.00;;;7.93;;
65182;SDS011;51771;51.068;-1.780;2022-11-04T21:10:13;13.43;;;8.23;;
65182;SDS011;51771;51.068;-1.780;2022-11-04T21:12:38;21.40;;;8.13;;
65182;SDS011;51771;51.068;-1.780;2022-11-04T21:15:04;11.00;;;6.70;;
65182;SDS011;51771;51.068;-1.780;2022-11-04T21:17:49;11.88;;;6.43;;
65182;SDS011;51771;51.068;-1.780;2022-11-04T21:20:14;11.23;;;6.30;;
65182;SDS011;51771;51.068;-1.780;2022-11-04T21:22:39;49.65;;;18.10;;
65182;SDS011;51771;51.068;-1.780;2022-11-04T21:25:05;102.57;;;56.63;;
65182;SDS011;51771;51.068;-1.780;2022-11-04T21:27:30;65.30;;;36.03;;
65182;SDS011;51771;51.068;-1.780;2022-11-04T21:29:55;41.10;;;16.80;;
65182;SDS011;51771;51.068;-1.780;2022-11-04T21:32:20;38.97;;;20.90;;
65182;SDS011;51771;51.068;-1.780;2022-11-04T21:34:46;46.20;;;22.60;;
65182;SDS011;51771;51.068;-1.780;2022-11-04T21:37:11;42.47;;;24.13;;
65182;SDS011;51771;51.068;-1.780;2022-11-04T21:39:36;41.83;;;20.80;;
65182;SDS011;51771;51.068;-1.780;2022-11-04T21:42:01;23.88;;;14.68;;
65182;SDS011;51771;51.068;-1.780;2022-11-04T21:44:27;20.02;;;10.80;;
65182;SDS011;51771;51.068;-1.780;2022-11-04T21:46:52;21.70;;;8.83;;
65182;SDS011;51771;51.068;-1.780;2022-11-04T21:49:17;49.80;;;28.83;;
65182;SDS011;51771;51.068;-1.780;2022-11-04T21:51:42;22.75;;;13.88;;
65182;SDS011;51771;51.068;-1.780;2022-11-04T21:54:09;20.53;;;11.50;;
65182;SDS011;51771;51.068;-1.780;2022-11-04T21:56:34;30.70;;;11.43;;
65182;SDS011;51771;51.068;-1.780;2022-11-04T21:59:00;23.80;;;9.55;;
65182;SDS011;51771;51.068;-1.780;2022-11-04T22:01:26;14.52;;;8.95;;
65182;SDS011;51771;51.068;-1.780;2022-11-04T22:03:55;12.88;;;6.30;;
65182;SDS011;51771;51.068;-1.780;2022-11-04T22:06:23;14.48;;;5.65;;
65182;SDS011;51771;51.068;-1.780;2022-11-04T22:08:49;19.58;;;5.28;;
65182;SDS011;51771;51.068;-1.780;2022-11-04T22:11:19;12.10;;;5.90;;
65182;SDS011;51771;51.068;-1.780;2022-11-04T22:13:45;15.38;;;6.40;;
65182;SDS011;51771;51.068;-1.780;2022-11-04T22:16:11;29.13;;;11.38;;
65182;SDS011;51771;51.068;-1.780;2022-11-04T22:18:36;24.48;;;12.00;;
65182;SDS011;51771;51.068;-1.780;2022-11-04T22:21:03;20.95;;;12.73;;
65182;SDS011;51771;51.068;-1.780;2022-11-04T22:23:29;26.50;;;9.93;;
65182;SDS011;51771;51.068;-1.780;2022-11-04T22:25:58;29.83;;;11.18;;
65182;SDS011;51771;51.068;-1.780;2022-11-04T22:28:23;17.63;;;10.43;;
